Time;durP1;ratioP1;P1;durP2;ratioP2;P2;SDS_P1;SDS_P2;PMS_P1;PMS_P2;Temp;Humidity;BMP_temperature;BMP_pressure;BME280_temperature;BME280_humidity;BME280_pressure;Samples;Min_cycle;Max_cycle;Signal;HPM_P1;HPM_P2
2023/03/13 00:01:11;;;;;;;10.23;4.20;;;7.00;99.90;;;7.84;95.10;97478.06;5234910;28;21936;-64
2023/03/13 00:03:44;;;;;;;7.27;3.93;;;7.00;99.90;;;7.79;96.01;97479.47;5240562;28;21034;-63
2023/03/13 00:06:18;;;;;;;9.50;4.43;;;6.90;99.90;;;7.75;95.85;97478.38;5240780;28;20205;-64
2023/03/13 00:08:52;;;;;;;8.47;4.30;;;6.80;99.90;;;7.68;96.92;97466.09;5244123;28;20206;-63
2023/03/13 00:11:26;;;;;;;5.60;4.57;;;6.80;99.90;;;7.63;97.18;97470.88;5238689;28;20314;-62
2023/03/13 00:14:04;;;;;;;7.30;4.23;;;6.70;99.90;;;7.56;98.01;97456.03;5240527;28;20212;-64
2023/03/13 00:16:38;;;;;;;9.60;5.07;;;6.70;99.90;;;7.51;98.26;97465.03;5237867;28;20197;-64
2023/03/13 00:19:12;;;;;;;9.53;5.07;;;6.60;99.90;;;7.45;98.25;97477.38;5233019;28;20580;-64
2023/03/13 00:21:45;;;;;;;8.87;5.00;;;6.60;99.90;;;7.39;99.15;97472.78;5233489;28;20200;-64
2023/03/13 00:24:20;;;;;;;8.30;4.60;;;6.50;99.90;;;7.36;99.10;97471.72;5239662;28;20869;-64
2023/03/13 00:26:53;;;;;;;7.70;5.10;;;6.40;99.90;;;7.29;99.59;97474.63;5248034;28;20200;-64
2023/03/13 00:29:26;;;;;;;9.47;4.90;;;6.40;99.90;;;7.26;99.54;97475.31;5236250;28;20201;-64
2023/03/13 00:31:59;;;;;;;9.80;5.50;;;6.40;99.90;;;7.23;100.00;97473.47;5236205;28;20228;-62
2023/03/13 00:34:32;;;;;;;8.07;4.67;;;6.30;99.90;;;7.17;100.00;97475.63;5235578;28;20741;-64
2023/03/13 00:37:05;;;;;;;8.53;4.93;;;6.30;99.90;;;7.15;100.00;97482.28;5237729;28;20201;-63
2023/03/13 00:39:39;;;;;;;8.30;4.90;;;6.30;99.90;;;7.09;100.00;97471.69;5245947;28;20288;-63
2023/03/13 00:42:13;;;;;;;9.53;4.33;;;6.20;99.90;;;6.96;100.00;97474.25;5233804;28;20191;-65
2023/03/13 00:44:46;;;;;;;7.97;4.83;;;6.10;99.90;;;6.98;100.00;97467.59;5251957;28;20228;-63
2023/03/13 00:47:19;;;;;;;8.83;4.77;;;6.10;99.90;;;6.97;100.00;97468.38;5242198;28;20247;-64
2023/03/13 00:49:52;;;;;;;6.40;4.47;;;6.20;99.90;;;6.96;100.00;97459.00;5241459;28;20291;-64
2023/03/13 00:52:27;;;;;;;9.50;4.77;;;6.10;99.90;;;6.97;100.00;97460.75;5238508;28;20655;-64
2023/03/13 00:55:01;;;;;;;6.47;4.50;;;6.10;99.90;;;6.96;100.00;97459.88;5246383;28;20199;-64
2023/03/13 00:57:36;;;;;;;7.57;4.40;;;6.10;99.90;;;6.98;100.00;97463.41;5237508;28;20216;-64
2023/03/13 01:00:11;;;;;;;6.77;4.77;;;6.10;99.90;;;6.99;100.00;97457.53;5236174;28;20196;-62
2023/03/13 01:02:44;;;;;;;7.43;4.00;;;6.10;99.90;;;6.96;100.00;97448.84;5238175;28;20316;-64
2023/03/13 01:05:17;;;;;;;8.37;4.10;;;6.10;99.90;;;6.99;100.00;97454.13;5243929;28;20208;-62
2023/03/13 01:07:50;;;;;;;5.23;4.13;;;6.20;99.90;;;6.97;100.00;97448.06;5236324;28;20211;-64
2023/03/13 01:10:25;;;;;;;9.40;5.07;;;6.10;99.90;;;7.00;100.00;97440.63;5239690;28;20212;-63
2023/03/13 01:12:59;;;;;;;8.37;4.40;;;6.10;99.90;;;7.02;100.00;97439.06;5233961;28;20602;-63
2023/03/13 01:15:35;;;;;;;12.10;4.60;;;6.10;99.90;;;6.96;100.00;97428.53;5239402;28;20208;-64
2023/03/13 01:18:09;;;;;;;8.97;4.97;;;6.10;99.90;;;6.97;100.00;97430.28;5238145;28;20192;-63
2023/03/13 01:20:42;;;;;;;6.83;4.53;;;6.10;99.90;;;6.98;100.00;97421.84;5229241;28;20665;-64
2023/03/13 01:23:15;;;;;;;9.87;5.03;;;6.10;99.90;;;6.97;100.00;97425.19;5235889;28;20208;-66
2023/03/13 01:25:50;;;;;;;7.33;4.50;;;6.10;99.90;;;6.96;100.00;97418.38;5242761;28;20201;-64
2023/03/13 01:28:24;;;;;;;8.97;4.30;;;6.10;99.90;;;6.94;100.00;97405.56;5237539;28;20208;-63
2023/03/13 01:30:57;;;;;;;9.47;5.10;;;6.10;99.90;;;6.87;100.00;97402.53;5236255;28;20286;-62
2023/03/13 01:33:30;;;;;;;8.80;5.10;;;6.10;99.90;;;6.82;100.00;97404.78;5232678;28;20750;-64
2023/03/13 01:36:05;;;;;;;8.93;4.70;;;6.10;99.90;;;6.89;100.00;97385.72;5234291;28;20794;-63
2023/03/13 01:38:38;;;;;;;9.83;4.93;;;6.10;99.90;;;6.90;100.00;97395.13;5237859;28;20622;-63
2023/03/13 01:41:13;;;;;;;7.87;4.73;;;6.10;99.90;;;6.96;100.00;97395.50;5238535;28;20287;-64
2023/03/13 01:43:47;;;;;;;10.23;4.33;;;6.10;99.90;;;6.95;100.00;97386.09;5236343;28;20260;-63
2023/03/13 01:46:23;;;;;;;7.47;4.00;;;6.10;99.90;;;7.00;100.00;97379.66;5237633;28;20189;-64
2023/03/13 01:49:04;;;;;;;6.13;4.43;;;6.10;99.90;;;6.93;100.00;97378.41;5236740;28;20295;-63
2023/03/13 01:51:41;;;;;;;7.13;4.17;;;6.10;99.90;;;6.88;100.00;97377.22;5238921;28;20224;-63
2023/03/13 01:54:19;;;;;;;8.60;4.33;;;6.00;99.90;;;6.89;100.00;97375.56;5235146;28;20877;-62
2023/03/13 01:56:58;;;;;;;7.70;4.90;;;6.00;99.90;;;6.81;100.00;97370.00;5238218;28;20250;-63
2023/03/13 01:59:38;;;;;;;7.20;4.87;;;6.00;99.90;;;6.76;100.00;97362.09;5239348;28;20303;-63
2023/03/13 02:02:12;;;;;;;9.13;4.50;;;5.90;99.90;;;6.74;100.00;97361.09;5236058;28;20677;-62
2023/03/13 02:04:49;;;;;;;6.80;4.53;;;5.90;99.90;;;6.73;100.00;97358.47;5239440;28;20237;-63
2023/03/13 02:07:28;;;;;;;7.40;3.90;;;5.90;99.90;;;6.67;100.00;97348.81;5239627;28;20219;-64
2023/03/13 02:10:02;;;;;;;10.40;5.07;;;5.80;99.90;;;6.62;100.00;97355.25;5239808;28;20197;-62
2023/03/13 02:12:39;;;;;;;10.37;4.67;;;5.80;99.90;;;6.52;100.00;97346.19;5237231;28;20286;-62
2023/03/13 02:15:16;;;;;;;6.87;4.17;;;5.80;99.90;;;6.53;100.00;97350.47;5241428;28;20624;-62
2023/03/13 02:17:51;;;;;;;7.60;4.53;;;5.80;99.90;;;6.54;100.00;97342.06;5239482;28;20200;-63
2023/03/13 02:20:24;;;;;;;5.67;4.20;;;5.80;99.90;;;6.54;100.00;97339.53;5236428;28;20283;-64
2023/03/13 02:23:03;;;;;;;9.57;5.00;;;5.80;99.90;;;6.61;100.00;97335.72;5230726;28;20225;-63
2023/03/13 02:25:43;;;;;;;8.47;4.60;;;5.80;99.90;;;6.53;100.00;97339.44;5232036;28;20236;-63
2023/03/13 02:28:19;;;;;;;6.83;3.70;;;5.80;99.90;;;6.50;100.00;97326.56;5237100;28;20660;-62
2023/03/13 02:30:57;;;;;;;7.57;4.40;;;5.70;99.90;;;6.49;100.00;97322.25;5235393;28;20208;-62
2023/03/13 02:33:35;;;;;;;9.63;4.50;;;5.70;99.90;;;6.50;100.00;97324.00;5236432;28;20240;-62
2023/03/13 02:36:09;;;;;;;7.60;4.23;;;5.70;99.90;;;6.52;100.00;97327.50;5236379;28;20583;-63
2023/03/13 02:38:48;;;;;;;9.33;4.20;;;5.70;99.90;;;6.49;100.00;97318.03;5233513;28;20549;-62
2023/03/13 02:41:24;;;;;;;8.20;4.33;;;5.70;99.90;;;6.46;100.00;97316.97;5235514;28;20204;-62
2023/03/13 02:43:57;;;;;;;6.60;3.97;;;5.70;99.90;;;6.52;100.00;97319.88;5239767;28;20227;-63
2023/03/13 02:46:43;;;;;;;8.17;4.17;;;5.70;99.90;;;6.54;100.00;97311.59;5241537;28;20322;-61
2023/03/13 02:49:23;;;;;;;9.43;4.50;;;5.80;99.90;;;6.58;100.00;97312.69;5233365;28;20704;-63
2023/03/13 02:51:59;;;;;;;10.73;4.60;;;5.80;99.90;;;6.58;100.00;97312.69;5237729;28;20192;-63
2023/03/13 02:54:36;;;;;;;10.17;4.07;;;5.80;99.90;;;6.64;100.00;97302.91;5237648;28;20227;-63
2023/03/13 02:57:10;;;;;;;8.13;4.13;;;5.90;99.90;;;6.63;100.00;97292.66;5232077;28;20562;-63
2023/03/13 02:59:44;;;;;;;9.60;4.73;;;5.90;99.90;;;6.65;100.00;97291.97;5230090;28;20200;-64
2023/03/13 03:02:17;;;;;;;6.50;4.50;;;5.90;99.90;;;6.69;100.00;97288.81;5235776;28;20203;-64
2023/03/13 03:04:50;;;;;;;9.33;4.50;;;5.90;99.90;;;6.77;100.00;97279.16;5239086;28;20220;-64
2023/03/13 03:07:23;;;;;;;8.30;4.50;;;5.90;99.90;;;6.79;100.00;97276.72;5238776;28;20640;-62
2023/03/13 03:09:56;;;;;;;6.80;3.60;;;5.90;99.90;;;6.65;100.00;97274.19;5236673;28;20312;-63
2023/03/13 03:12:31;;;;;;;7.43;3.80;;;5.80;99.90;;;6.59;100.00;97268.75;5233616;28;20230;-62
2023/03/13 03:15:05;;;;;;;5.17;3.87;;;5.80;99.90;;;6.67;100.00;97256.53;5237516;28;20207;-63
2023/03/13 03:17:39;;;;;;;10.20;4.23;;;5.80;99.90;;;6.63;100.00;97245.28;5237214;28;20212;-63
2023/03/13 03:20:12;;;;;;;7.43;3.80;;;5.70;99.90;;;6.46;100.00;97243.34;5237101;28;20747;-62
2023/03/13 03:22:45;;;;;;;8.37;3.80;;;5.70;99.90;;;6.39;100.00;97239.56;5236933;28;20228;-64
2023/03/13 03:25:18;;;;;;;6.23;3.77;;;5.70;99.90;;;6.40;100.00;97232.81;5235707;28;20215;-63
2023/03/13 03:27:53;;;;;;;6.83;3.97;;;5.80;99.90;;;6.43;100.00;97233.00;5244283;28;20193;-64
2023/03/13 03:30:26;;;;;;;7.63;4.37;;;5.80;99.90;;;6.46;100.00;97220.50;5240255;28;20614;-63
2023/03/13 03:32:59;;;;;;;7.70;4.63;;;5.80;99.90;;;6.44;100.00;97222.97;5235811;28;20225;-62
2023/03/13 03:35:37;;;;;;;7.50;4.60;;;5.90;99.90;;;6.48;100.00;97211.34;5238720;28;20282;-63
2023/03/13 03:38:10;;;;;;;10.43;4.70;;;5.90;99.90;;;6.53;100.00;97208.31;5231292;28;20208;-62
2023/03/13 03:40:43;;;;;;;11.07;4.40;;;5.90;99.90;;;6.55;100.00;97210.91;5241449;28;20200;-63
2023/03/13 03:43:18;;;;;;;6.90;3.70;;;6.00;99.90;;;6.77;100.00;97205.50;5239887;28;20218;-63
2023/03/13 03:45:51;;;;;;;10.47;4.33;;;6.10;99.90;;;6.41;100.00;97207.56;5237767;28;20204;-64
2023/03/13 03:48:24;;;;;;;7.83;3.93;;;5.90;99.90;;;6.32;100.00;97192.63;5234858;28;20200;-64
2023/03/13 03:50:57;;;;;;;6.30;4.23;;;5.80;99.90;;;6.31;100.00;97193.38;5235323;28;20193;-64
2023/03/13 03:53:31;;;;;;;9.10;3.87;;;5.80;99.90;;;6.39;100.00;97198.09;5236911;28;20598;-63
2023/03/13 03:56:05;;;;;;;5.97;4.03;;;5.80;99.90;;;6.42;100.00;97191.53;5244092;28;20284;-64
2023/03/13 03:58:39;;;;;;;6.70;4.00;;;5.80;99.90;;;6.53;100.00;97197.28;5239367;28;20219;-63
2023/03/13 04:01:12;;;;;;;8.50;3.83;;;5.80;99.90;;;6.46;100.00;97195.13;5234710;28;20315;-62
2023/03/13 04:03:47;;;;;;;10.50;4.60;;;5.80;99.90;;;6.43;100.00;97192.41;5241528;28;20213;-63
2023/03/13 04:06:20;;;;;;;8.40;5.00;;;5.80;99.90;;;6.40;100.00;97188.00;5239782;28;20232;-62
2023/03/13 04:08:54;;;;;;;7.50;4.57;;;5.80;99.90;;;6.40;100.00;97189.66;5235339;28;20201;-62
2023/03/13 04:11:27;;;;;;;8.00;4.60;;;5.80;99.90;;;6.37;100.00;97202.19;5234805;28;20584;-64
2023/03/13 04:14:01;;;;;;;6.77;4.40;;;5.80;99.90;;;6.31;100.00;97188.31;5233169;28;20324;-64
2023/03/13 04:16:35;;;;;;;7.80;4.67;;;5.80;99.90;;;6.27;100.00;97190.59;5237929;28;20204;-64
2023/03/13 04:19:08;;;;;;;8.33;4.13;;;5.70;99.90;;;6.34;100.00;97189.28;5240216;28;20196;-63
2023/03/13 04:21:41;;;;;;;4.77;4.30;;;5.80;99.90;;;6.36;100.00;97197.91;5246840;28;20571;-64
2023/03/13 04:24:14;;;;;;;9.73;4.50;;;5.80;99.90;;;6.45;100.00;97199.34;5238294;28;20221;-64
2023/03/13 04:26:47;;;;;;;9.87;4.83;;;5.80;99.90;;;6.48;100.00;97191.03;5232505;28;20561;-63
2023/03/13 04:29:21;;;;;;;7.03;4.33;;;5.90;99.90;;;6.48;100.00;97193.56;5241947;28;20207;-65
2023/03/13 04:31:55;;;;;;;8.10;4.80;;;5.80;99.90;;;6.51;100.00;97186.13;5239610;28;20211;-63
2023/03/13 04:34:28;;;;;;;8.23;4.70;;;5.80;99.90;;;6.44;100.00;97189.06;5237292;28;20683;-65
2023/03/13 04:37:01;;;;;;;10.23;5.03;;;5.80;99.90;;;6.45;100.00;97183.22;5237406;28;20197;-64
2023/03/13 04:39:35;;;;;;;5.53;4.20;;;5.80;99.90;;;6.48;100.00;97163.09;5238803;28;20668;-63
2023/03/13 04:42:10;;;;;;;9.67;5.47;;;5.90;99.90;;;6.47;100.00;97166.44;5241069;28;20319;-63
2023/03/13 04:44:44;;;;;;;11.37;5.30;;;5.90;99.90;;;6.43;100.00;97169.56;5233402;28;20783;-63
2023/03/13 04:47:17;;;;;;;7.83;4.73;;;5.90;99.90;;;6.52;100.00;97159.97;5235997;28;20211;-65
2023/03/13 04:49:51;;;;;;;5.10;4.50;;;5.90;99.90;;;6.44;100.00;97166.22;5236607;28;20292;-64
2023/03/13 04:52:24;;;;;;;9.47;4.87;;;5.90;99.90;;;6.48;100.00;97158.91;5234057;28;20231;-64
2023/03/13 04:54:57;;;;;;;5.83;4.43;;;5.90;99.90;;;6.53;100.00;97167.69;5241132;28;20688;-63
2023/03/13 04:57:30;;;;;;;6.33;4.13;;;6.00;99.90;;;6.59;100.00;97162.09;5236824;28;20219;-63
2023/03/13 05:00:09;;;;;;;7.97;5.20;;;6.00;99.90;;;6.65;100.00;97157.41;5231513;28;20216;-63
2023/03/13 05:02:42;;;;;;;9.30;4.80;;;6.10;99.90;;;6.67;100.00;97160.03;5236276;28;20253;-64
2023/03/13 05:05:15;;;;;;;7.87;4.53;;;6.00;99.90;;;6.62;100.00;97157.22;5241171;28;20201;-63
2023/03/13 05:07:48;;;;;;;6.47;4.07;;;6.00;99.90;;;6.58;100.00;97159.47;5237936;28;20201;-64
2023/03/13 05:10:21;;;;;;;8.07;4.07;;;6.00;99.90;;;6.65;100.00;97170.09;5236132;28;20201;-62
2023/03/13 05:12:54;;;;;;;7.40;5.20;;;6.10;99.90;;;6.77;100.00;97168.28;5232715;28;20701;-64
2023/03/13 05:15:29;;;;;;;6.43;4.20;;;6.10;99.90;;;6.68;100.00;97162.66;5230509;28;20225;-64
2023/03/13 05:18:02;;;;;;;9.07;5.57;;;6.00;99.90;;;6.71;100.00;97154.34;5237187;28;20686;-64
2023/03/13 05:20:35;;;;;;;9.80;5.97;;;6.00;99.90;;;6.77;100.00;97153.03;5233863;28;20258;-63
2023/03/13 05:23:08;;;;;;;7.00;5.67;;;6.10;99.90;;;6.65;100.00;97147.25;5241518;28;20212;-64
2023/03/13 05:25:41;;;;;;;9.00;5.80;;;6.00;99.90;;;6.65;100.00;97152.31;5235730;28;20205;-63
2023/03/13 05:28:14;;;;;;;10.83;5.87;;;6.00;99.90;;;6.62;100.00;97149.59;5230636;28;20201;-63
2023/03/13 05:30:49;;;;;;;8.47;5.20;;;6.00;99.90;;;6.59;100.00;97157.03;5231918;28;20304;-64
2023/03/13 05:33:22;;;;;;;9.27;6.53;;;6.00;99.90;;;6.68;100.00;97157.56;5237706;28;20235;-64
2023/03/13 05:35:55;;;;;;;9.10;5.60;;;6.10;99.90;;;6.68;100.00;97162.66;5233832;28;20200;-64
2023/03/13 05:38:28;;;;;;;8.40;5.27;;;6.10;99.90;;;6.75;100.00;97154.63;5235484;28;20203;-63
2023/03/13 05:41:01;;;;;;;9.07;4.80;;;6.20;99.90;;;6.71;100.00;97157.75;5242711;28;20212;-64
2023/03/13 05:43:35;;;;;;;4.63;4.10;;;6.10;99.90;;;6.78;100.00;97148.84;5238026;28;20216;-64
2023/03/13 05:46:09;;;;;;;7.00;4.43;;;6.20;99.90;;;6.74;100.00;97150.31;5236589;28;20197;-64
2023/03/13 05:48:44;;;;;;;8.80;4.50;;;6.20;99.90;;;6.81;100.00;97158.31;5234774;28;20204;-64
2023/03/13 05:51:17;;;;;;;10.87;7.50;;;6.30;99.90;;;6.90;100.00;97161.41;5239561;28;20659;-64
2023/03/13 05:53:50;;;;;;;30.90;21.80;;;6.40;99.90;;;6.91;100.00;97158.94;5230634;28;20600;-64
2023/03/13 05:56:24;;;;;;;30.70;21.60;;;6.40;99.90;;;7.02;100.00;97158.72;5235986;28;20203;-64
2023/03/13 05:59:49;;;;;;;25.23;18.17;;;6.50;99.90;;;7.12;100.00;97151.72;5240380;28;20394;-65
2023/03/13 06:02:27;;;;;;;18.03;13.30;;;6.60;99.90;;;7.27;100.00;97145.78;5237638;28;20679;-65
2023/03/13 06:05:00;;;;;;;17.07;13.47;;;6.70;99.90;;;7.26;100.00;97137.28;5240133;28;20196;-65
2023/03/13 06:07:33;;;;;;;15.53;11.97;;;6.70;99.90;;;7.28;100.00;97137.38;5234291;28;20205;-64
2023/03/13 06:10:08;;;;;;;12.33;9.33;;;6.80;99.90;;;7.36;100.00;97136.16;5242407;28;20201;-64
2023/03/13 06:12:41;;;;;;;11.83;8.53;;;6.90;99.90;;;7.50;100.00;97127.66;5237005;28;20204;-64
2023/03/13 06:15:14;;;;;;;9.80;8.10;;;6.90;99.90;;;7.61;100.00;97133.31;5238841;28;20220;-64
2023/03/13 06:17:49;;;;;;;12.07;9.60;;;7.00;99.90;;;7.63;100.00;97122.44;5229104;28;20194;-64
2023/03/13 06:20:22;;;;;;;10.50;7.70;;;7.00;99.90;;;7.58;100.00;97121.34;5231376;28;20199;-65
2023/03/13 06:22:55;;;;;;;9.23;7.03;;;7.00;99.90;;;7.62;100.00;97135.09;5247961;28;20216;-65
2023/03/13 06:25:28;;;;;;;7.37;6.00;;;7.00;99.90;;;7.67;100.00;97110.81;5228482;28;21628;-65
2023/03/13 06:28:02;;;;;;;6.90;5.13;;;7.10;99.90;;;7.76;100.00;97123.16;5231790;28;20300;-65
2023/03/13 06:30:35;;;;;;;7.13;5.10;;;7.20;99.90;;;7.82;100.00;97129.44;5238748;28;20205;-65
2023/03/13 06:33:09;;;;;;;7.40;5.03;;;7.30;99.90;;;8.04;100.00;97141.69;5235428;28;20695;-64
2023/03/13 06:35:43;;;;;;;9.00;7.33;;;7.40;99.90;;;8.05;100.00;97143.44;5236529;28;20222;-65
2023/03/13 06:38:28;;;;;;;12.67;9.77;;;7.40;99.90;;;7.98;100.00;97130.28;5235294;28;20283;-65
2023/03/13 06:41:02;;;;;;;10.20;8.73;;;7.30;99.90;;;7.94;100.00;97138.56;5232513;28;20224;-65
2023/03/13 06:43:35;;;;;;;11.40;7.90;;;7.30;99.90;;;7.97;100.00;97139.59;5241301;28;20224;-65
2023/03/13 06:46:08;;;;;;;9.87;8.27;;;7.30;99.90;;;7.98;100.00;97136.25;5240424;28;20736;-65
2023/03/13 06:48:45;;;;;;;8.23;7.27;;;7.30;99.90;;;8.02;100.00;97133.09;5226479;28;20209;-65
2023/03/13 06:51:20;;;;;;;8.73;6.77;;;7.40;99.90;;;8.08;100.00;97130.88;5236313;28;20196;-65
2023/03/13 06:53:54;;;;;;;6.80;6.20;;;7.50;99.90;;;8.20;100.00;97124.72;5241324;28;20619;-65
2023/03/13 06:56:27;;;;;;;9.53;7.17;;;7.50;99.90;;;8.27;100.00;97121.69;5236837;28;20200;-64
2023/03/13 06:59:00;;;;;;;11.43;9.40;;;7.60;99.90;;;8.34;100.00;97118.69;5227740;28;20585;-65
2023/03/13 07:01:33;;;;;;;9.10;8.17;;;7.70;99.90;;;8.47;100.00;97123.69;5241215;28;20205;-65
2023/03/13 07:04:11;;;;;;;12.87;9.33;;;7.80;99.90;;;8.57;100.00;97125.03;5236243;28;20222;-65
2023/03/13 07:06:44;;;;;;;9.97;8.47;;;8.00;99.90;;;8.67;100.00;97132.38;5239283;28;20205;-63
2023/03/13 07:09:18;;;;;;;9.40;6.90;;;8.10;99.90;;;8.76;100.00;97137.09;5246844;28;20581;-66
2023/03/13 07:11:51;;;;;;;11.10;9.20;;;8.20;99.90;;;8.86;100.00;97138.41;5238707;28;20204;-63
2023/03/13 07:14:25;;;;;;;12.33;8.50;;;8.20;99.90;;;8.88;100.00;97137.72;5242819;28;20311;-66
2023/03/13 07:16:59;;;;;;;10.83;7.33;;;8.30;99.90;;;9.05;100.00;97145.34;5239223;28;20215;-65
2023/03/13 07:19:34;;;;;;;10.87;7.30;;;8.40;99.90;;;9.14;100.00;97148.38;5240847;28;20200;-64
2023/03/13 07:22:07;;;;;;;13.37;8.80;;;8.50;99.90;;;9.17;100.00;97148.53;5236931;28;20549;-65
2023/03/13 07:24:40;;;;;;;9.40;7.30;;;8.50;99.90;;;9.17;100.00;97156.16;5232243;28;20217;-65
2023/03/13 07:27:13;;;;;;;8.97;7.43;;;8.50;99.90;;;9.17;100.00;97153.63;5231955;28;20196;-64
2023/03/13 07:29:46;;;;;;;12.20;6.83;;;8.50;99.90;;;9.17;100.00;97164.69;5240128;28;20201;-65
2023/03/13 07:32:19;;;;;;;7.83;5.53;;;8.60;99.90;;;9.23;100.00;97164.13;5240128;28;20207;-66
2023/03/13 07:34:53;;;;;;;6.73;4.83;;;8.70;99.90;;;9.33;100.00;97168.91;5237449;28;20228;-66
2023/03/13 07:37:27;;;;;;;5.67;4.53;;;8.70;99.90;;;9.40;100.00;97165.84;5242688;28;20210;-65
2023/03/13 07:40:00;;;;;;;4.95;4.50;;;8.80;99.90;;;9.58;100.00;97153.13;5233302;28;20200;-65
2023/03/13 07:42:33;;;;;;;7.13;4.50;;;8.90;99.90;;;9.60;100.00;97155.75;5233122;28;20299;-65
2023/03/13 07:45:07;;;;;;;5.28;4.30;;;8.90;99.90;;;9.67;100.00;97139.94;5235460;28;20279;-64
2023/03/13 07:47:40;;;;;;;6.97;5.05;;;9.00;99.90;;;9.79;100.00;97140.56;5242742;28;20290;-66
2023/03/13 07:50:15;;;;;;;6.60;5.20;;;9.10;99.90;;;9.92;100.00;97137.75;5244039;28;20271;-65
2023/03/13 07:52:48;;;;;;;5.25;4.20;;;9.30;99.90;;;10.02;100.00;97143.34;5233626;28;20220;-64
2023/03/13 07:55:21;;;;;;;3.05;2.83;;;9.40;99.90;;;10.29;100.00;97134.41;5249029;28;20239;-65
2023/03/13 07:57:54;;;;;;;4.22;2.30;;;9.60;99.90;;;10.43;100.00;97134.19;5239946;28;20587;-63
2023/03/13 08:00:27;;;;;;;2.35;1.98;;;9.80;99.90;;;10.67;100.00;97137.84;5240673;28;20204;-65
2023/03/13 08:03:00;;;;;;;2.28;2.10;;;10.00;99.90;;;10.86;100.00;97133.56;5236056;28;20224;-63
2023/03/13 08:05:35;;;;;;;2.22;1.80;;;10.20;99.90;;;10.91;100.00;97124.41;5239949;28;20197;-64
2023/03/13 08:08:08;;;;;;;1.83;1.73;;;10.30;99.90;;;11.16;100.00;97126.31;5242412;28;20196;-64
2023/03/13 08:10:42;;;;;;;1.90;1.80;;;10.60;99.90;;;11.25;100.00;97119.94;5238538;28;20197;-62
2023/03/13 08:13:15;;;;;;;1.85;1.75;;;10.70;99.90;;;11.14;100.00;97123.72;5244900;28;20294;-63
2023/03/13 08:15:48;;;;;;;1.77;1.67;;;10.80;99.90;;;11.20;100.00;97116.31;5239823;28;20224;-64
2023/03/13 08:18:21;;;;;;;2.05;1.95;;;10.70;99.90;;;11.19;100.00;97108.59;5238215;28;20197;-64
2023/03/13 08:20:55;;;;;;;1.92;1.83;;;10.70;99.90;;;11.20;100.00;97100.97;5241778;28;20201;-64
2023/03/13 08:23:29;;;;;;;1.90;1.80;;;10.70;99.90;;;11.23;100.00;97095.97;5238804;28;20754;-64
2023/03/13 08:26:04;;;;;;;2.00;1.90;;;10.70;99.90;;;11.27;100.00;97087.63;5238177;28;20657;-62
2023/03/13 08:28:39;;;;;;;2.58;1.75;;;10.80;99.90;;;11.43;100.00;97089.13;5249256;28;20265;-63
2023/03/13 08:31:14;;;;;;;2.05;1.38;;;10.90;99.90;;;11.49;100.00;97083.38;5247118;28;20578;-63
2023/03/13 08:33:48;;;;;;;2.28;1.88;;;11.00;99.90;;;11.67;100.00;97068.75;5240388;28;20238;-64
2023/03/13 08:36:25;;;;;;;1.83;1.73;;;11.20;99.90;;;11.79;100.00;97059.81;5233106;28;20317;-63
2023/03/13 08:39:00;;;;;;;1.90;1.80;;;11.30;99.90;;;11.93;100.00;97072.41;5239741;28;20196;-63
2023/03/13 08:41:36;;;;;;;2.40;2.20;;;11.40;99.90;;;11.98;100.00;97059.75;5238944;28;20223;-62
2023/03/13 08:44:12;;;;;;;1.85;1.75;;;11.50;99.90;;;12.21;100.00;97041.81;5234593;28;20221;-65
2023/03/13 08:46:46;;;;;;;2.00;1.90;;;11.70;99.90;;;12.45;100.00;97032.50;5230872;28;20548;-64
2023/03/13 08:49:20;;;;;;;2.13;2.03;;;11.90;99.90;;;12.48;100.00;97035.16;5239744;28;20204;-64
2023/03/13 08:51:55;;;;;;;2.75;2.20;;;12.00;99.90;;;12.68;100.00;97040.13;5242809;28;20200;-64
2023/03/13 08:54:28;;;;;;;1.98;1.83;;;12.20;99.90;;;12.77;100.00;97056.69;5240408;28;20286;-64
2023/03/13 08:57:01;;;;;;;4.55;2.40;;;12.30;99.90;;;13.13;99.32;97052.78;5244206;28;20216;-63
2023/03/13 08:59:34;;;;;;;2.58;1.77;;;12.60;99.90;;;13.41;98.74;97052.06;5234044;28;20641;-65
2023/03/13 09:02:09;;;;;;;1.85;1.67;;;12.80;99.90;;;13.75;97.03;97043.72;5237603;28;20197;-64
2023/03/13 09:04:42;;;;;;;1.90;1.80;;;13.30;99.90;;;14.09;93.02;97024.22;5237854;28;20228;-64
2023/03/13 09:07:16;;;;;;;1.80;1.70;;;13.70;99.90;;;14.10;91.64;97028.50;5235663;28;20197;-65
2023/03/13 09:09:50;;;;;;;1.80;1.70;;;13.70;99.90;;;14.24;89.88;97040.06;5236917;28;20324;-65
2023/03/13 09:12:23;;;;;;;2.00;1.90;;;13.80;99.90;;;14.23;91.58;97035.78;5237723;28;20545;-65
2023/03/13 09:15:03;;;;;;;1.83;1.70;;;13.80;99.90;;;14.32;89.47;97037.75;5242125;28;20193;-65
2023/03/13 09:17:37;;;;;;;1.90;1.80;;;13.80;99.90;;;14.34;88.45;97036.97;5231363;28;20224;-63
2023/03/13 09:20:11;;;;;;;3.58;2.00;;;13.80;99.90;;;14.43;89.36;97034.66;5241984;28;20192;-65
2023/03/13 09:22:46;;;;;;;2.22;1.75;;;13.80;99.90;;;14.50;87.34;97034.81;5238642;28;20683;-66
2023/03/13 09:25:19;;;;;;;1.92;1.83;;;13.80;99.90;;;14.46;87.98;97038.13;5239933;28;20295;-66
2023/03/13 09:27:52;;;;;;;2.92;1.75;;;13.90;99.90;;;14.46;88.52;97030.44;5234271;28;20650;-66
2023/03/13 09:30:25;;;;;;;2.20;2.10;;;13.90;99.90;;;14.51;88.48;97032.31;5235535;28;20217;-65
2023/03/13 09:32:58;;;;;;;2.33;1.83;;;14.00;99.90;;;14.60;87.25;97030.00;5239299;28;20216;-66
2023/03/13 09:35:31;;;;;;;1.92;1.52;;;13.90;99.90;;;14.56;87.33;97027.31;5239749;28;20207;-65
2023/03/13 09:38:06;;;;;;;2.05;1.88;;;13.90;99.90;;;14.69;85.76;97031.97;5244394;28;20576;-65
2023/03/13 09:40:45;;;;;;;1.85;1.75;;;14.00;99.90;;;14.75;85.64;97032.13;5233669;28;20196;-65
2023/03/13 09:43:45;;;;;;;2.17;1.83;;;14.10;99.90;;;14.76;84.40;97031.28;5236418;28;20224;-66
2023/03/13 09:46:24;;;;;;;1.88;1.77;;;14.20;99.90;;;14.75;84.99;97032.13;5244347;28;20280;-64
2023/03/13 09:49:01;;;;;;;1.83;1.70;;;14.30;99.90;;;14.79;84.79;97023.69;5240519;28;20204;-65
2023/03/13 09:51:39;;;;;;;1.80;1.70;;;14.40;99.90;;;14.92;84.87;97027.44;5241384;28;20204;-65
2023/03/13 09:54:24;;;;;;;1.70;1.60;;;14.40;99.90;;;15.14;83.01;97026.31;5244216;28;20387;-65
2023/03/13 09:57:04;;;;;;;1.92;1.83;;;14.60;99.90;;;15.22;81.60;97036.78;5231934;28;20746;-65
2023/03/13 09:59:47;;;;;;;1.90;1.70;;;14.70;99.90;;;15.21;81.54;97038.50;5227267;28;20223;-63
2023/03/13 10:02:32;;;;;;;2.35;1.70;;;14.60;99.90;;;15.15;81.67;97040.03;5235691;28;20197;-66
2023/03/13 10:05:14;;;;;;;2.40;1.90;;;14.50;99.90;;;15.27;80.84;97051.50;5235284;28;20300;-64
2023/03/13 10:07:48;;;;;;;2.20;1.75;;;14.60;99.90;;;15.32;78.76;97046.50;5232886;28;20205;-64
2023/03/13 10:10:35;;;;;;;3.88;2.05;;;14.80;99.90;;;15.31;78.41;97031.88;5227154;28;20604;-64
2023/03/13 10:13:20;;;;;;;2.20;2.00;;;14.70;99.90;;;15.24;79.33;97036.00;5230127;28;20220;-66
2023/03/13 10:15:56;;;;;;;2.20;1.80;;;14.60;99.90;;;15.23;78.75;97041.13;5238535;28;20234;-65
2023/03/13 10:18:29;;;;;;;2.08;1.80;;;14.50;99.90;;;15.27;78.67;97041.22;5237923;28;20200;-64
2023/03/13 10:21:17;;;;;;;1.88;1.77;;;14.60;99.90;;;15.26;77.95;97046.34;5239042;28;20225;-65
2023/03/13 10:23:55;;;;;;;2.35;1.88;;;14.70;99.90;;;15.25;76.84;97031.72;5233752;28;20231;-63
2023/03/13 10:26:35;;;;;;;2.35;1.85;;;14.70;99.90;;;15.39;77.14;97012.31;5238487;28;20196;-65
2023/03/13 10:29:21;;;;;;;2.35;1.88;;;14.80;99.90;;;15.40;77.61;97010.63;5232217;28;20667;-65
2023/03/13 10:32:00;;;;;;;1.80;1.70;;;14.90;99.90;;;15.52;76.74;96995.47;5238976;28;20656;-66
2023/03/13 10:34:50;;;;;;;2.00;1.80;;;14.90;99.90;;;15.60;76.17;97000.81;5243500;28;20227;-65
2023/03/13 10:37:27;;;;;;;2.88;2.17;;;15.00;99.90;;;15.68;77.26;97005.34;5242954;28;20227;-66
2023/03/13 10:40:14;;;;;;;2.58;2.08;;;15.10;99.90;;;16.04;74.82;96991.53;5241611;28;20295;-65
2023/03/13 10:42:49;;;;;;;2.42;2.00;;;15.40;99.90;;;16.16;75.28;96990.91;5231590;28;20307;-66
2023/03/13 10:45:23;;;;;;;2.28;2.05;;;15.60;99.90;;;16.27;74.64;96978.25;5238243;28;20196;-65
2023/03/13 10:48:01;;;;;;;2.53;2.05;;;15.70;99.90;;;16.33;75.04;96970.63;5241746;28;20250;-64
2023/03/13 10:50:35;;;;;;;2.05;1.90;;;15.80;99.90;;;16.52;74.85;96962.41;5239706;28;20204;-64
2023/03/13 10:53:24;;;;;;;2.20;2.00;;;16.00;99.90;;;16.78;72.19;96954.31;5236552;28;20216;-65
2023/03/13 10:56:06;;;;;;;2.13;1.92;;;16.30;99.90;;;16.90;71.34;96946.78;5241572;28;20300;-64